Taylorsville, Utah
Current Conditions -  °F | °C
As of 10:53 PM on Friday 24 Oct 2014 (Local Time) from KSLC Reporting Station
Clear Clear  
Wind Chill: 58°   Ceiling: Unl
Heat Index: 58°   Visibility: 10mi
Dew Point: 31°   Wind: 10mph
Humidity: 36%   Direction: 130°SE
Pressure: 30.09"   Gusts: NA
Location:  40.6511°N, 112.018°W
Report Text: KSLC 250453Z 13009KT 10SM CLR 14/M01 A3009 RMK AO2 SLP154 T01441006
Loading
Personal Weather Stations






























Interactive Weather Map
Tropical Storm Tracking
New forecast layout! Learn more

10-Day Weather Forecast

Advertisements
Track Severe Weather on mobile